sensor_id;sensor_type;location;lat;lon;timestamp;P1;durP1;ratioP1;P2;durP2;ratioP2
12840;SDS011;6487;48.626;12.486;2023-10-13T00:01:09;12.83;;;6.33;;
12840;SDS011;6487;48.626;12.486;2023-10-13T00:03:38;7.47;;;6.37;;
12840;SDS011;6487;48.626;12.486;2023-10-13T00:06:07;8.50;;;6.37;;
12840;SDS011;6487;48.626;12.486;2023-10-13T00:08:38;7.47;;;6.03;;
12840;SDS011;6487;48.626;12.486;2023-10-13T00:11:11;10.53;;;6.40;;
12840;SDS011;6487;48.626;12.486;2023-10-13T00:13:44;9.03;;;6.90;;
12840;SDS011;6487;48.626;12.486;2023-10-13T00:16:17;14.30;;;7.20;;
12840;SDS011;6487;48.626;12.486;2023-10-13T00:18:48;9.73;;;6.60;;
12840;SDS011;6487;48.626;12.486;2023-10-13T00:21:23;9.00;;;6.00;;
12840;SDS011;6487;48.626;12.486;2023-10-13T00:24:02;10.87;;;6.43;;
12840;SDS011;6487;48.626;12.486;2023-10-13T00:26:40;5.87;;;5.27;;
12840;SDS011;6487;48.626;12.486;2023-10-13T00:29:09;7.90;;;4.80;;
12840;SDS011;6487;48.626;12.486;2023-10-13T00:31:42;12.03;;;5.60;;
12840;SDS011;6487;48.626;12.486;2023-10-13T00:34:15;7.83;;;4.83;;
12840;SDS011;6487;48.626;12.486;2023-10-13T00:36:46;10.23;;;4.97;;
12840;SDS011;6487;48.626;12.486;2023-10-13T00:39:38;11.47;;;5.17;;
12840;SDS011;6487;48.626;12.486;2023-10-13T00:42:12;10.93;;;5.57;;
12840;SDS011;6487;48.626;12.486;2023-10-13T00:44:46;8.53;;;5.60;;
12840;SDS011;6487;48.626;12.486;2023-10-13T00:47:15;7.03;;;5.40;;
12840;SDS011;6487;48.626;12.486;2023-10-13T00:50:04;7.80;;;5.13;;
12840;SDS011;6487;48.626;12.486;2023-10-13T00:52:38;7.73;;;5.47;;
12840;SDS011;6487;48.626;12.486;2023-10-13T00:55:09;8.23;;;5.73;;
12840;SDS011;6487;48.626;12.486;2023-10-13T00:57:40;7.63;;;5.17;;
12840;SDS011;6487;48.626;12.486;2023-10-13T01:00:08;7.40;;;5.00;;
12840;SDS011;6487;48.626;12.486;2023-10-13T01:02:45;6.33;;;4.23;;
12840;SDS011;6487;48.626;12.486;2023-10-13T01:05:22;5.87;;;4.40;;
12840;SDS011;6487;48.626;12.486;2023-10-13T01:07:51;5.47;;;4.70;;
12840;SDS011;6487;48.626;12.486;2023-10-13T01:10:22;7.30;;;3.80;;
12840;SDS011;6487;48.626;12.486;2023-10-13T01:12:54;7.17;;;4.27;;
12840;SDS011;6487;48.626;12.486;2023-10-13T01:15:22;5.10;;;4.07;;
12840;SDS011;6487;48.626;12.486;2023-10-13T01:18:05;6.97;;;4.60;;
12840;SDS011;6487;48.626;12.486;2023-10-13T01:20:37;7.73;;;4.20;;
12840;SDS011;6487;48.626;12.486;2023-10-13T01:23:13;5.97;;;4.13;;
12840;SDS011;6487;48.626;12.486;2023-10-13T01:25:45;4.93;;;3.93;;
12840;SDS011;6487;48.626;12.486;2023-10-13T01:28:14;5.50;;;4.10;;
12840;SDS011;6487;48.626;12.486;2023-10-13T01:30:45;11.03;;;4.30;;
12840;SDS011;6487;48.626;12.486;2023-10-13T01:33:17;5.43;;;4.20;;
12840;SDS011;6487;48.626;12.486;2023-10-13T01:35:52;6.00;;;4.03;;
12840;SDS011;6487;48.626;12.486;2023-10-13T01:38:24;6.67;;;4.13;;
12840;SDS011;6487;48.626;12.486;2023-10-13T01:40:54;6.97;;;3.97;;
12840;SDS011;6487;48.626;12.486;2023-10-13T01:43:23;7.77;;;3.80;;
12840;SDS011;6487;48.626;12.486;2023-10-13T01:45:52;7.47;;;4.20;;
12840;SDS011;6487;48.626;12.486;2023-10-13T01:48:20;6.90;;;4.07;;
12840;SDS011;6487;48.626;12.486;2023-10-13T01:50:48;5.40;;;3.93;;
12840;SDS011;6487;48.626;12.486;2023-10-13T01:53:22;6.20;;;4.10;;
12840;SDS011;6487;48.626;12.486;2023-10-13T01:55:55;6.40;;;4.00;;
12840;SDS011;6487;48.626;12.486;2023-10-13T01:58:25;6.03;;;3.90;;
12840;SDS011;6487;48.626;12.486;2023-10-13T02:00:56;6.27;;;4.37;;
12840;SDS011;6487;48.626;12.486;2023-10-13T02:03:23;6.23;;;3.47;;
12840;SDS011;6487;48.626;12.486;2023-10-13T02:05:54;5.03;;;3.80;;
12840;SDS011;6487;48.626;12.486;2023-10-13T02:08:25;10.50;;;5.03;;
12840;SDS011;6487;48.626;12.486;2023-10-13T02:10:54;5.93;;;4.20;;
12840;SDS011;6487;48.626;12.486;2023-10-13T02:13:23;6.60;;;4.20;;
12840;SDS011;6487;48.626;12.486;2023-10-13T02:15:53;6.20;;;4.00;;
12840;SDS011;6487;48.626;12.486;2023-10-13T02:18:23;7.10;;;4.30;;
12840;SDS011;6487;48.626;12.486;2023-10-13T02:21:02;5.63;;;4.20;;
12840;SDS011;6487;48.626;12.486;2023-10-13T02:23:40;5.90;;;4.20;;
12840;SDS011;6487;48.626;12.486;2023-10-13T02:26:11;8.27;;;3.60;;
12840;SDS011;6487;48.626;12.486;2023-10-13T02:28:41;6.50;;;3.93;;
12840;SDS011;6487;48.626;12.486;2023-10-13T02:31:17;7.37;;;3.70;;
12840;SDS011;6487;48.626;12.486;2023-10-13T02:33:46;8.40;;;4.33;;
12840;SDS011;6487;48.626;12.486;2023-10-13T02:36:14;5.33;;;4.10;;
12840;SDS011;6487;48.626;12.486;2023-10-13T02:38:50;6.93;;;4.60;;
12840;SDS011;6487;48.626;12.486;2023-10-13T02:41:19;5.33;;;4.30;;
12840;SDS011;6487;48.626;12.486;2023-10-13T02:43:52;5.23;;;4.17;;
12840;SDS011;6487;48.626;12.486;2023-10-13T02:46:21;7.60;;;4.00;;
12840;SDS011;6487;48.626;12.486;2023-10-13T02:48:52;6.83;;;3.80;;
12840;SDS011;6487;48.626;12.486;2023-10-13T02:51:20;5.90;;;4.50;;
12840;SDS011;6487;48.626;12.486;2023-10-13T02:53:56;6.63;;;4.20;;
12840;SDS011;6487;48.626;12.486;2023-10-13T02:56:29;6.10;;;3.80;;
12840;SDS011;6487;48.626;12.486;2023-10-13T02:58:56;5.37;;;4.10;;
12840;SDS011;6487;48.626;12.486;2023-10-13T03:01:31;6.00;;;3.90;;
12840;SDS011;6487;48.626;12.486;2023-10-13T03:04:01;6.13;;;4.33;;
12840;SDS011;6487;48.626;12.486;2023-10-13T03:06:35;10.00;;;4.20;;
12840;SDS011;6487;48.626;12.486;2023-10-13T03:09:08;6.17;;;3.97;;
12840;SDS011;6487;48.626;12.486;2023-10-13T03:11:41;6.57;;;3.63;;
12840;SDS011;6487;48.626;12.486;2023-10-13T03:14:14;7.00;;;3.97;;
12840;SDS011;6487;48.626;12.486;2023-10-13T03:16:55;4.50;;;3.43;;
12840;SDS011;6487;48.626;12.486;2023-10-13T03:19:29;5.63;;;4.03;;
12840;SDS011;6487;48.626;12.486;2023-10-13T03:22:01;7.87;;;4.10;;
12840;SDS011;6487;48.626;12.486;2023-10-13T03:24:37;4.67;;;3.67;;
12840;SDS011;6487;48.626;12.486;2023-10-13T03:27:11;5.97;;;4.10;;
12840;SDS011;6487;48.626;12.486;2023-10-13T03:29:43;5.57;;;3.93;;
12840;SDS011;6487;48.626;12.486;2023-10-13T03:32:15;6.30;;;4.17;;
12840;SDS011;6487;48.626;12.486;2023-10-13T03:34:44;5.80;;;3.70;;
12840;SDS011;6487;48.626;12.486;2023-10-13T03:37:33;8.87;;;4.30;;
12840;SDS011;6487;48.626;12.486;2023-10-13T03:40:10;5.60;;;4.00;;
12840;SDS011;6487;48.626;12.486;2023-10-13T03:43:01;7.13;;;3.73;;
12840;SDS011;6487;48.626;12.486;2023-10-13T03:45:32;6.77;;;3.90;;
12840;SDS011;6487;48.626;12.486;2023-10-13T03:48:06;5.93;;;3.90;;
12840;SDS011;6487;48.626;12.486;2023-10-13T03:50:55;7.23;;;3.67;;
12840;SDS011;6487;48.626;12.486;2023-10-13T03:53:29;7.53;;;4.07;;
12840;SDS011;6487;48.626;12.486;2023-10-13T03:56:02;5.60;;;3.30;;
12840;SDS011;6487;48.626;12.486;2023-10-13T03:58:39;5.90;;;4.03;;
12840;SDS011;6487;48.626;12.486;2023-10-13T04:01:13;9.73;;;3.87;;
12840;SDS011;6487;48.626;12.486;2023-10-13T04:03:43;4.27;;;3.87;;
12840;SDS011;6487;48.626;12.486;2023-10-13T04:06:29;7.47;;;4.00;;
12840;SDS011;6487;48.626;12.486;2023-10-13T04:09:39;5.07;;;3.60;;
12840;SDS011;6487;48.626;12.486;2023-10-13T04:12:27;4.30;;;3.27;;
12840;SDS011;6487;48.626;12.486;2023-10-13T04:15:13;4.70;;;3.37;;
12840;SDS011;6487;48.626;12.486;2023-10-13T04:17:44;7.93;;;4.03;;
12840;SDS011;6487;48.626;12.486;2023-10-13T04:20:13;8.97;;;4.00;;
12840;SDS011;6487;48.626;12.486;2023-10-13T04:23:01;5.37;;;4.00;;
12840;SDS011;6487;48.626;12.486;2023-10-13T04:25:46;6.73;;;4.10;;
12840;SDS011;6487;48.626;12.486;2023-10-13T04:28:37;3.73;;;3.33;;
12840;SDS011;6487;48.626;12.486;2023-10-13T04:31:17;5.60;;;3.70;;
12840;SDS011;6487;48.626;12.486;2023-10-13T04:34:02;4.57;;;3.50;;
12840;SDS011;6487;48.626;12.486;2023-10-13T04:36:40;5.93;;;4.00;;
12840;SDS011;6487;48.626;12.486;2023-10-13T04:39:11;7.30;;;3.87;;
12840;SDS011;6487;48.626;12.486;2023-10-13T04:41:55;5.77;;;3.57;;
12840;SDS011;6487;48.626;12.486;2023-10-13T04:44:25;7.47;;;3.33;;
12840;SDS011;6487;48.626;12.486;2023-10-13T04:47:14;4.20;;;3.37;;
12840;SDS011;6487;48.626;12.486;2023-10-13T04:49:48;4.47;;;3.33;;
12840;SDS011;6487;48.626;12.486;2023-10-13T04:52:19;6.50;;;3.70;;
12840;SDS011;6487;48.626;12.486;2023-10-13T04:55:05;6.17;;;3.87;;
12840;SDS011;6487;48.626;12.486;2023-10-13T04:57:51;5.00;;;4.10;;
12840;SDS011;6487;48.626;12.486;2023-10-13T05:00:28;5.33;;;3.93;;
12840;SDS011;6487;48.626;12.486;2023-10-13T05:03:28;6.50;;;3.43;;
12840;SDS011;6487;48.626;12.486;2023-10-13T05:06:40;5.00;;;3.93;;
12840;SDS011;6487;48.626;12.486;2023-10-13T05:09:26;5.90;;;3.60;;
12840;SDS011;6487;48.626;12.486;2023-10-13T05:12:11;4.33;;;3.83;;
12840;SDS011;6487;48.626;12.486;2023-10-13T05:14:57;5.67;;;3.60;;
12840;SDS011;6487;48.626;12.486;2023-10-13T05:17:44;5.47;;;3.80;;
12840;SDS011;6487;48.626;12.486;2023-10-13T05:20:30;5.10;;;3.77;;
12840;SDS011;6487;48.626;12.486;2023-10-13T05:23:16;4.83;;;3.77;;
12840;SDS011;6487;48.626;12.486;2023-10-13T05:26:02;8.37;;;4.33;;
12840;SDS011;6487;48.626;12.486;2023-10-13T05:28:47;4.97;;;3.83;;
12840;SDS011;6487;48.626;12.486;2023-10-13T05:31:53;6.97;;;3.43;;
12840;SDS011;6487;48.626;12.486;2023-10-13T05:34:41;6.90;;;4.23;;
12840;SDS011;6487;48.626;12.486;2023-10-13T05:37:41;4.53;;;3.70;;
12840;SDS011;6487;48.626;12.486;2023-10-13T05:40:27;6.40;;;3.90;;
12840;SDS011;6487;48.626;12.486;2023-10-13T05:43:13;5.27;;;3.93;;
12840;SDS011;6487;48.626;12.486;2023-10-13T05:46:00;8.23;;;4.37;;
12840;SDS011;6487;48.626;12.486;2023-10-13T05:48:47;6.80;;;4.60;;
12840;SDS011;6487;48.626;12.486;2023-10-13T05:51:48;10.43;;;4.27;;
12840;SDS011;6487;48.626;12.486;2023-10-13T05:54:33;4.83;;;4.40;;
12840;SDS011;6487;48.626;12.486;2023-10-13T05:57:19;6.97;;;4.13;;
12840;SDS011;6487;48.626;12.486;2023-10-13T06:00:01;5.60;;;4.20;;
12840;SDS011;6487;48.626;12.486;2023-10-13T06:02:47;7.27;;;3.87;;
12840;SDS011;6487;48.626;12.486;2023-10-13T06:05:33;10.60;;;4.20;;
12840;SDS011;6487;48.626;12.486;2023-10-13T06:08:20;4.27;;;3.77;;
12840;SDS011;6487;48.626;12.486;2023-10-13T06:11:06;9.53;;;4.07;;
12840;SDS011;6487;48.626;12.486;2023-10-13T06:13:52;8.10;;;4.53;;
12840;SDS011;6487;48.626;12.486;2023-10-13T06:16:37;8.53;;;4.43;;
12840;SDS011;6487;48.626;12.486;2023-10-13T06:19:23;8.97;;;4.07;;
12840;SDS011;6487;48.626;12.486;2023-10-13T06:22:09;5.33;;;4.10;;
12840;SDS011;6487;48.626;12.486;2023-10-13T06:24:56;6.47;;;4.90;;
12840;SDS011;6487;48.626;12.486;2023-10-13T06:27:42;5.90;;;4.37;;
12840;SDS011;6487;48.626;12.486;2023-10-13T06:30:28;5.27;;;4.77;;
12840;SDS011;6487;48.626;12.486;2023-10-13T06:32:56;6.20;;;4.47;;
12840;SDS011;6487;48.626;12.486;2023-10-13T06:35:25;8.27;;;4.77;;
12840;SDS011;6487;48.626;12.486;2023-10-13T06:37:53;7.57;;;5.37;;
12840;SDS011;6487;48.626;12.486;2023-10-13T06:40:28;7.63;;;5.20;;
12840;SDS011;6487;48.626;12.486;2023-10-13T06:43:01;12.53;;;6.10;;
12840;SDS011;6487;48.626;12.486;2023-10-13T06:45:43;9.60;;;5.83;;
12840;SDS011;6487;48.626;12.486;2023-10-13T06:48:17;10.03;;;6.33;;
12840;SDS011;6487;48.626;12.486;2023-10-13T06:50:49;11.13;;;5.60;;
12840;SDS011;6487;48.626;12.486;2023-10-13T06:53:18;5.17;;;4.67;;
12840;SDS011;6487;48.626;12.486;2023-10-13T06:55:48;9.23;;;5.20;;
12840;SDS011;6487;48.626;12.486;2023-10-13T06:58:19;5.97;;;5.10;;
12840;SDS011;6487;48.626;12.486;2023-10-13T07:00:50;5.97;;;4.90;;
12840;SDS011;6487;48.626;12.486;2023-10-13T07:03:24;6.90;;;4.57;;
12840;SDS011;6487;48.626;12.486;2023-10-13T07:05:53;9.27;;;5.03;;
12840;SDS011;6487;48.626;12.486;2023-10-13T07:08:25;6.63;;;4.87;;
12840;SDS011;6487;48.626;12.486;2023-10-13T07:10:59;8.17;;;5.30;;
12840;SDS011;6487;48.626;12.486;2023-10-13T07:13:32;7.87;;;4.70;;
12840;SDS011;6487;48.626;12.486;2023-10-13T07:16:04;8.30;;;5.17;;
12840;SDS011;6487;48.626;12.486;2023-10-13T07:18:54;7.07;;;5.27;;
12840;SDS011;6487;48.626;12.486;2023-10-13T07:21:30;9.40;;;5.80;;
12840;SDS011;6487;48.626;12.486;2023-10-13T07:24:00;8.10;;;6.17;;
12840;SDS011;6487;48.626;12.486;2023-10-13T07:26:36;7.93;;;4.63;;
12840;SDS011;6487;48.626;12.486;2023-10-13T07:29:10;11.07;;;7.07;;
12840;SDS011;6487;48.626;12.486;2023-10-13T07:31:39;11.73;;;8.83;;
12840;SDS011;6487;48.626;12.486;2023-10-13T07:34:12;13.27;;;12.00;;
12840;SDS011;6487;48.626;12.486;2023-10-13T07:36:54;26.33;;;23.73;;
12840;SDS011;6487;48.626;12.486;2023-10-13T07:39:27;9.30;;;8.30;;
12840;SDS011;6487;48.626;12.486;2023-10-13T07:42:02;11.73;;;6.10;;
12840;SDS011;6487;48.626;12.486;2023-10-13T07:44:35;12.27;;;6.70;;
12840;SDS011;6487;48.626;12.486;2023-10-13T07:47:06;14.27;;;9.80;;
12840;SDS011;6487;48.626;12.486;2023-10-13T07:49:37;14.23;;;9.27;;
12840;SDS011;6487;48.626;12.486;2023-10-13T07:52:07;13.57;;;9.50;;
12840;SDS011;6487;48.626;12.486;2023-10-13T07:54:54;11.57;;;8.63;;
12840;SDS011;6487;48.626;12.486;2023-10-13T07:57:40;9.17;;;5.87;;
12840;SDS011;6487;48.626;12.486;2023-10-13T08:00:21;7.93;;;5.23;;
12840;SDS011;6487;48.626;12.486;2023-10-13T08:02:56;9.93;;;6.50;;
12840;SDS011;6487;48.626;12.486;2023-10-13T08:05:36;7.40;;;5.97;;
12840;SDS011;6487;48.626;12.486;2023-10-13T08:08:22;6.70;;;4.83;;
12840;SDS011;6487;48.626;12.486;2023-10-13T08:10:52;10.47;;;6.70;;
12840;SDS011;6487;48.626;12.486;2023-10-13T08:13:24;9.80;;;6.50;;
12840;SDS011;6487;48.626;12.486;2023-10-13T08:15:53;8.33;;;5.80;;
12840;SDS011;6487;48.626;12.486;2023-10-13T08:18:25;8.30;;;6.40;;
12840;SDS011;6487;48.626;12.486;2023-10-13T08:20:57;9.20;;;6.80;;
12840;SDS011;6487;48.626;12.486;2023-10-13T08:23:30;14.40;;;7.13;;
12840;SDS011;6487;48.626;12.486;2023-10-13T08:26:22;10.87;;;7.90;;
12840;SDS011;6487;48.626;12.486;2023-10-13T08:29:06;10.80;;;6.00;;
12840;SDS011;6487;48.626;12.486;2023-10-13T08:31:49;9.67;;;6.60;;
12840;SDS011;6487;48.626;12.486;2023-10-13T08:34:40;9.17;;;6.30;;
12840;SDS011;6487;48.626;12.486;2023-10-13T08:37:22;12.97;;;7.00;;
12840;SDS011;6487;48.626;12.486;2023-10-13T08:39:55;8.60;;;5.97;;
12840;SDS011;6487;48.626;12.486;2023-10-13T08:42:53;11.13;;;5.80;;
12840;SDS011;6487;48.626;12.486;2023-10-13T08:45:39;11.13;;;6.90;;
12840;SDS011;6487;48.626;12.486;2023-10-13T08:48:25;12.03;;;6.77;;
12840;SDS011;6487;48.626;12.486;2023-10-13T08:51:01;9.47;;;6.07;;
12840;SDS011;6487;48.626;12.486;2023-10-13T08:53:37;6.80;;;6.07;;
12840;SDS011;6487;48.626;12.486;2023-10-13T08:56:18;11.50;;;5.90;;
12840;SDS011;6487;48.626;12.486;2023-10-13T08:59:00;6.27;;;4.90;;
12840;SDS011;6487;48.626;12.486;2023-10-13T09:01:37;10.27;;;4.80;;
12840;SDS011;6487;48.626;12.486;2023-10-13T09:04:13;7.73;;;4.80;;
12840;SDS011;6487;48.626;12.486;2023-10-13T09:06:49;6.40;;;4.10;;
12840;SDS011;6487;48.626;12.486;2023-10-13T09:09:44;7.97;;;4.67;;
12840;SDS011;6487;48.626;12.486;2023-10-13T09:12:31;8.50;;;3.75;;
12840;SDS011;6487;48.626;12.486;2023-10-13T09:15:06;7.72;;;3.92;;
12840;SDS011;6487;48.626;12.486;2023-10-13T09:17:47;5.80;;;3.60;;
12840;SDS011;6487;48.626;12.486;2023-10-13T09:20:27;6.13;;;3.45;;
12840;SDS011;6487;48.626;12.486;2023-10-13T09:23:07;6.00;;;3.17;;
12840;SDS011;6487;48.626;12.486;2023-10-13T09:25:39;7.22;;;3.35;;
12840;SDS011;6487;48.626;12.486;2023-10-13T09:28:20;5.63;;;3.50;;
12840;SDS011;6487;48.626;12.486;2023-10-13T09:30:52;5.03;;;2.95;;
12840;SDS011;6487;48.626;12.486;2023-10-13T09:33:25;8.20;;;3.20;;
12840;SDS011;6487;48.626;12.486;2023-10-13T09:35:59;9.32;;;3.65;;
12840;SDS011;6487;48.626;12.486;2023-10-13T09:38:27;4.63;;;2.90;;
12840;SDS011;6487;48.626;12.486;2023-10-13T09:40:57;3.63;;;2.65;;
12840;SDS011;6487;48.626;12.486;2023-10-13T09:43:28;6.07;;;3.40;;
12840;SDS011;6487;48.626;12.486;2023-10-13T09:45:58;6.88;;;3.33;;
12840;SDS011;6487;48.626;12.486;2023-10-13T09:48:34;4.90;;;3.05;;
12840;SDS011;6487;48.626;12.486;2023-10-13T09:51:10;6.97;;;3.28;;
12840;SDS011;6487;48.626;12.486;2023-10-13T09:53:41;5.80;;;3.38;;
12840;SDS011;6487;48.626;12.486;2023-10-13T09:56:37;4.43;;;2.90;;
12840;SDS011;6487;48.626;12.486;2023-10-13T09:59:19;9.73;;;3.30;;
12840;SDS011;6487;48.626;12.486;2023-10-13T10:01:53;6.07;;;3.40;;
12840;SDS011;6487;48.626;12.486;2023-10-13T10:04:26;6.30;;;3.13;;
12840;SDS011;6487;48.626;12.486;2023-10-13T10:06:56;6.65;;;3.10;;
12840;SDS011;6487;48.626;12.486;2023-10-13T10:09:26;7.50;;;3.03;;
12840;SDS011;6487;48.626;12.486;2023-10-13T10:12:10;6.05;;;3.38;;
12840;SDS011;6487;48.626;12.486;2023-10-13T10:14:56;5.20;;;3.20;;
12840;SDS011;6487;48.626;12.486;2023-10-13T10:17:54;6.47;;;3.22;;
12840;SDS011;6487;48.626;12.486;2023-10-13T10:20:30;4.03;;;3.45;;
12840;SDS011;6487;48.626;12.486;2023-10-13T10:23:08;7.85;;;3.40;;
12840;SDS011;6487;48.626;12.486;2023-10-13T10:25:44;4.10;;;2.72;;
12840;SDS011;6487;48.626;12.486;2023-10-13T10:28:12;5.38;;;2.85;;
12840;SDS011;6487;48.626;12.486;2023-10-13T10:30:42;4.90;;;2.90;;
12840;SDS011;6487;48.626;12.486;2023-10-13T10:33:11;4.93;;;3.22;;
12840;SDS011;6487;48.626;12.486;2023-10-13T10:35:44;8.20;;;3.40;;
12840;SDS011;6487;48.626;12.486;2023-10-13T10:38:14;7.72;;;3.25;;
12840;SDS011;6487;48.626;12.486;2023-10-13T10:40:54;4.63;;;2.80;;
12840;SDS011;6487;48.626;12.486;2023-10-13T10:43:27;7.75;;;3.22;;
12840;SDS011;6487;48.626;12.486;2023-10-13T10:46:08;7.25;;;2.97;;
12840;SDS011;6487;48.626;12.486;2023-10-13T10:48:41;3.78;;;3.03;;
12840;SDS011;6487;48.626;12.486;2023-10-13T10:51:12;6.90;;;3.42;;
12840;SDS011;6487;48.626;12.486;2023-10-13T10:53:47;4.30;;;3.20;;
12840;SDS011;6487;48.626;12.486;2023-10-13T10:56:17;8.60;;;3.05;;
12840;SDS011;6487;48.626;12.486;2023-10-13T10:58:53;6.40;;;3.13;;
12840;SDS011;6487;48.626;12.486;2023-10-13T11:01:23;4.03;;;3.22;;
12840;SDS011;6487;48.626;12.486;2023-10-13T11:04:01;5.32;;;3.03;;
12840;SDS011;6487;48.626;12.486;2023-10-13T11:06:37;5.60;;;3.25;;
12840;SDS011;6487;48.626;12.486;2023-10-13T11:09:09;7.80;;;3.08;;
12840;SDS011;6487;48.626;12.486;2023-10-13T11:11:47;6.93;;;3.10;;
12840;SDS011;6487;48.626;12.486;2023-10-13T11:14:22;6.40;;;3.20;;
12840;SDS011;6487;48.626;12.486;2023-10-13T11:16:52;8.60;;;2.92;;
12840;SDS011;6487;48.626;12.486;2023-10-13T11:19:33;6.65;;;3.25;;
12840;SDS011;6487;48.626;12.486;2023-10-13T11:22:13;4.82;;;2.60;;
12840;SDS011;6487;48.626;12.486;2023-10-13T11:25:08;6.45;;;2.92;;
12840;SDS011;6487;48.626;12.486;2023-10-13T11:27:37;7.13;;;2.85;;
12840;SDS011;6487;48.626;12.486;2023-10-13T11:30:23;5.07;;;2.80;;
12840;SDS011;6487;48.626;12.486;2023-10-13T11:32:56;6.00;;;2.83;;
12840;SDS011;6487;48.626;12.486;2023-10-13T11:35:26;8.13;;;3.38;;
12840;SDS011;6487;48.626;12.486;2023-10-13T11:38:15;9.20;;;3.22;;
12840;SDS011;6487;48.626;12.486;2023-10-13T11:40:54;5.05;;;2.97;;
12840;SDS011;6487;48.626;12.486;2023-10-13T11:43:41;9.70;;;2.90;;
12840;SDS011;6487;48.626;12.486;2023-10-13T11:46:33;4.88;;;2.75;;
12840;SDS011;6487;48.626;12.486;2023-10-13T11:49:19;7.85;;;3.22;;
12840;SDS011;6487;48.626;12.486;2023-10-13T11:51:58;8.48;;;3.13;;
12840;SDS011;6487;48.626;12.486;2023-10-13T11:54:43;5.35;;;3.25;;
12840;SDS011;6487;48.626;12.486;2023-10-13T11:57:15;5.43;;;2.72;;
12840;SDS011;6487;48.626;12.486;2023-10-13T11:59:48;7.82;;;3.03;;
12840;SDS011;6487;48.626;12.486;2023-10-13T12:02:45;7.13;;;3.47;;
12840;SDS011;6487;48.626;12.486;2023-10-13T12:05:34;5.82;;;3.15;;
12840;SDS011;6487;48.626;12.486;2023-10-13T12:08:29;7.88;;;3.33;;
12840;SDS011;6487;48.626;12.486;2023-10-13T12:10:59;4.45;;;2.80;;
12840;SDS011;6487;48.626;12.486;2023-10-13T12:13:49;5.35;;;3.33;;
12840;SDS011;6487;48.626;12.486;2023-10-13T12:16:17;4.75;;;3.05;;
12840;SDS011;6487;48.626;12.486;2023-10-13T12:18:46;4.90;;;2.83;;
12840;SDS011;6487;48.626;12.486;2023-10-13T12:21:19;8.38;;;3.00;;
12840;SDS011;6487;48.626;12.486;2023-10-13T12:23:48;6.20;;;2.78;;
12840;SDS011;6487;48.626;12.486;2023-10-13T12:26:17;8.82;;;3.10;;
12840;SDS011;6487;48.626;12.486;2023-10-13T12:28:46;7.35;;;2.65;;
12840;SDS011;6487;48.626;12.486;2023-10-13T12:31:19;13.55;;;3.60;;
12840;SDS011;6487;48.626;12.486;2023-10-13T12:33:53;9.45;;;3.00;;
12840;SDS011;6487;48.626;12.486;2023-10-13T12:36:24;5.55;;;2.70;;
12840;SDS011;6487;48.626;12.486;2023-10-13T12:39:07;6.00;;;2.67;;
12840;SDS011;6487;48.626;12.486;2023-10-13T12:41:53;6.95;;;3.13;;
12840;SDS011;6487;48.626;12.486;2023-10-13T12:44:48;8.40;;;2.97;;
12840;SDS011;6487;48.626;12.486;2023-10-13T12:47:34;7.53;;;3.47;;
12840;SDS011;6487;48.626;12.486;2023-10-13T12:50:17;4.75;;;2.92;;
12840;SDS011;6487;48.626;12.486;2023-10-13T12:53:01;8.73;;;3.20;;
12840;SDS011;6487;48.626;12.486;2023-10-13T12:55:29;9.25;;;2.83;;
12840;SDS011;6487;48.626;12.486;2023-10-13T12:57:59;4.43;;;2.45;;
12840;SDS011;6487;48.626;12.486;2023-10-13T13:00:32;7.80;;;3.05;;
12840;SDS011;6487;48.626;12.486;2023-10-13T13:03:00;5.85;;;3.08;;
12840;SDS011;6487;48.626;12.486;2023-10-13T13:05:37;7.90;;;3.05;;
12840;SDS011;6487;48.626;12.486;2023-10-13T13:08:11;8.02;;;3.13;;
12840;SDS011;6487;48.626;12.486;2023-10-13T13:10:48;4.60;;;2.78;;
12840;SDS011;6487;48.626;12.486;2023-10-13T13:13:18;5.22;;;2.42;;
12840;SDS011;6487;48.626;12.486;2023-10-13T13:15:52;8.20;;;3.17;;
12840;SDS011;6487;48.626;12.486;2023-10-13T13:18:21;8.57;;;3.20;;
12840;SDS011;6487;48.626;12.486;2023-10-13T13:20:49;9.70;;;3.45;;
12840;SDS011;6487;48.626;12.486;2023-10-13T13:23:21;6.50;;;2.92;;
12840;SDS011;6487;48.626;12.486;2023-10-13T13:25:53;7.97;;;3.58;;
12840;SDS011;6487;48.626;12.486;2023-10-13T13:28:26;5.85;;;2.92;;
12840;SDS011;6487;48.626;12.486;2023-10-13T13:30:57;7.88;;;2.88;;
12840;SDS011;6487;48.626;12.486;2023-10-13T13:33:26;9.88;;;3.50;;
12840;SDS011;6487;48.626;12.486;2023-10-13T13:35:59;7.32;;;2.58;;
12840;SDS011;6487;48.626;12.486;2023-10-13T13:38:30;7.03;;;3.40;;
12840;SDS011;6487;48.626;12.486;2023-10-13T13:40:59;6.82;;;2.78;;
12840;SDS011;6487;48.626;12.486;2023-10-13T13:43:30;5.32;;;3.30;;
12840;SDS011;6487;48.626;12.486;2023-10-13T13:46:06;5.90;;;3.13;;
12840;SDS011;6487;48.626;12.486;2023-10-13T13:48:37;7.97;;;2.80;;
12840;SDS011;6487;48.626;12.486;2023-10-13T13:51:07;6.90;;;2.53;;
12840;SDS011;6487;48.626;12.486;2023-10-13T13:53:42;10.30;;;3.33;;
12840;SDS011;6487;48.626;12.486;2023-10-13T13:56:14;4.78;;;2.90;;
12840;SDS011;6487;48.626;12.486;2023-10-13T13:58:45;6.20;;;3.85;;
12840;SDS011;6487;48.626;12.486;2023-10-13T14:01:15;5.18;;;3.42;;
12840;SDS011;6487;48.626;12.486;2023-10-13T14:03:46;4.82;;;2.95;;
12840;SDS011;6487;48.626;12.486;2023-10-13T14:06:18;3.88;;;2.72;;
12840;SDS011;6487;48.626;12.486;2023-10-13T14:08:50;7.18;;;3.00;;
12840;SDS011;6487;48.626;12.486;2023-10-13T14:11:22;6.95;;;3.10;;
12840;SDS011;6487;48.626;12.486;2023-10-13T14:14:06;8.45;;;3.10;;
12840;SDS011;6487;48.626;12.486;2023-10-13T14:16:41;7.40;;;3.88;;
12840;SDS011;6487;48.626;12.486;2023-10-13T14:19:12;3.25;;;2.30;;
12840;SDS011;6487;48.626;12.486;2023-10-13T14:21:53;5.88;;;3.03;;
12840;SDS011;6487;48.626;12.486;2023-10-13T14:24:22;11.93;;;3.08;;
12840;SDS011;6487;48.626;12.486;2023-10-13T14:26:55;7.40;;;3.08;;
12840;SDS011;6487;48.626;12.486;2023-10-13T14:29:26;11.33;;;3.07;;
12840;SDS011;6487;48.626;12.486;2023-10-13T14:31:56;8.10;;;3.30;;
12840;SDS011;6487;48.626;12.486;2023-10-13T14:34:25;4.20;;;2.43;;
12840;SDS011;6487;48.626;12.486;2023-10-13T14:36:54;4.87;;;2.60;;
12840;SDS011;6487;48.626;12.486;2023-10-13T14:39:22;15.07;;;3.20;;
12840;SDS011;6487;48.626;12.486;2023-10-13T14:41:56;5.43;;;2.73;;
12840;SDS011;6487;48.626;12.486;2023-10-13T14:44:26;5.17;;;3.07;;
12840;SDS011;6487;48.626;12.486;2023-10-13T14:46:56;8.00;;;2.97;;
12840;SDS011;6487;48.626;12.486;2023-10-13T14:49:24;8.53;;;3.27;;
12840;SDS011;6487;48.626;12.486;2023-10-13T14:51:54;6.77;;;2.97;;
12840;SDS011;6487;48.626;12.486;2023-10-13T14:54:22;6.80;;;3.27;;
12840;SDS011;6487;48.626;12.486;2023-10-13T14:57:00;5.17;;;2.80;;
12840;SDS011;6487;48.626;12.486;2023-10-13T14:59:29;6.10;;;3.00;;
12840;SDS011;6487;48.626;12.486;2023-10-13T15:02:06;8.27;;;2.77;;
12840;SDS011;6487;48.626;12.486;2023-10-13T15:04:34;4.47;;;2.40;;
12840;SDS011;6487;48.626;12.486;2023-10-13T15:07:03;7.20;;;2.50;;
12840;SDS011;6487;48.626;12.486;2023-10-13T15:09:33;6.80;;;3.07;;
12840;SDS011;6487;48.626;12.486;2023-10-13T15:12:01;6.80;;;2.83;;
12840;SDS011;6487;48.626;12.486;2023-10-13T15:14:32;7.47;;;2.73;;
12840;SDS011;6487;48.626;12.486;2023-10-13T15:17:03;11.67;;;2.70;;
12840;SDS011;6487;48.626;12.486;2023-10-13T15:19:34;7.10;;;2.73;;
12840;SDS011;6487;48.626;12.486;2023-10-13T15:22:05;8.50;;;3.10;;
12840;SDS011;6487;48.626;12.486;2023-10-13T15:24:35;6.53;;;2.60;;
12840;SDS011;6487;48.626;12.486;2023-10-13T15:27:11;7.90;;;2.87;;
12840;SDS011;6487;48.626;12.486;2023-10-13T15:29:41;7.27;;;3.37;;
12840;SDS011;6487;48.626;12.486;2023-10-13T15:32:17;7.60;;;2.77;;
12840;SDS011;6487;48.626;12.486;2023-10-13T15:35:05;8.77;;;3.30;;
12840;SDS011;6487;48.626;12.486;2023-10-13T15:37:39;7.67;;;2.73;;
12840;SDS011;6487;48.626;12.486;2023-10-13T15:40:11;7.57;;;2.50;;